PTAO2: Poteau River, Poteau, OK

                                SHEF ID:       PTAO2     Poteau River at Poteau, OK
STATION TYPE:
Regulating: Stage = 20.00, Flow = 7395

PRECIP STAGE RIV-FLOW VOLTAGE BAT-LOAD
in ft cfs volt volt
Ccp-Rev Ccp-Rev Ccp-Rev Ccp-Rev Ccp-Rev
(America/Chicago)
07/10 00:00 0.00 8.96 2480 12.84 12.19
07/10 01:00 0.00 8.95 2477 12.83 12.25
07/10 02:00 0.00 8.90 2459 12.82 12.19
07/10 03:00 0.00 8.91 2462 12.80 12.18
07/10 04:00 0.00 8.88 2452 12.80 12.16
07/10 05:00 0.00 8.87 2448 12.78 12.16
07/10 06:00 0.00 8.86 2444 12.77 12.14
07/10 07:00 0.00 8.84 2437 12.90 12.22
07/10 08:00 0.00 8.83 2434 13.89 12.87
07/10 09:00 0.00 8.81 2426 13.67 12.87
07/10 10:00 0.00 8.80 2423 13.17 12.64
07/10 11:00 0.00 8.79 2419 13.05 12.47
07/10 12:00 0.00 8.77 2412 13.01 12.41
07/10 13:00 0.00 8.76 2409 13.04 12.42
07/10 14:00 0.00 8.76 2409 13.07 12.44
07/10 15:00 0.00 8.74 2401 13.05 12.41
07/10 16:00 0.00 8.75 2405 12.98 12.37
07/10 17:00 0.00 8.71 2391 12.94 12.31
07/10 18:00 0.00 8.72 2394 12.93 12.30
07/10 19:00 0.00 8.72 2394 13.05 12.37
07/10 20:00 0.00 8.70 2387 13.02 12.37
07/10 21:00 0.00 8.68 2380 12.90 12.28
07/10 22:00 0.00 8.68 2380 12.87 12.25
07/10 23:00 0.00 8.67 2376 12.84 12.23
Data processed at Fri 11Jul2025 04:48 GMT

Parsing this webpage?

Checkout our new Data API! CWMSDataAPI (CDA)

Timeseries IDs (TSIDs)

TSIDs used from left to right in the data table
POTE.Precip-Inc.Total.1Hour.1Hour.Ccp-Rev
POTE.Stage.Inst.1Hour.0.Ccp-Rev
POTE.Flow.Inst.1Hour.0.Ccp-Rev
POTE.Volt-Battery.Inst.1Hour.0.Ccp-Rev
POTE.Volt-Battery Load.Inst.1Hour.0.Ccp-Rev

                            

All information presented herein is the property of the government of the United States of America and may be revised or deleted at any time without prior notice. Dissemination of this information without the expressed written consent of the Public Affairs Office, Tulsa District U.S. Army Corps of Engineers is strictly prohibited. These data are gathered electronically and, as presented, have NOT undergone any form of quality control. These data are NOT guaranteed to be valid or correct.